createdAt,value
2017-10-08T00:00:47.818Z,12.50
2017-10-08T00:03:15.251Z,12.50
2017-10-08T00:05:42.673Z,12.60
2017-10-08T00:08:10.113Z,12.50
2017-10-08T00:10:37.536Z,12.40
2017-10-08T00:13:05.743Z,12.40
2017-10-08T00:15:33.159Z,12.40
2017-10-08T00:18:02.277Z,12.40
2017-10-08T00:20:29.700Z,12.30
2017-10-08T00:22:57.123Z,12.30
2017-10-08T00:25:24.566Z,12.30
2017-10-08T00:27:51.979Z,12.30
2017-10-08T00:30:20.176Z,12.30
2017-10-08T00:32:47.603Z,12.30
2017-10-08T00:35:15.031Z,12.20
2017-10-08T00:37:42.455Z,12.20
2017-10-08T00:40:09.891Z,12.20
2017-10-08T00:42:38.108Z,12.30
2017-10-08T00:45:05.519Z,12.20
2017-10-08T00:47:33.708Z,12.20
2017-10-08T00:50:01.138Z,12.20
2017-10-08T00:52:29.327Z,12.20
2017-10-08T00:54:57.519Z,12.20
2017-10-08T00:57:24.943Z,12.20
2017-10-08T00:59:52.370Z,12.10
2017-10-08T01:02:19.801Z,12.10
2017-10-08T01:04:47.219Z,12.10
2017-10-08T01:07:15.411Z,12.00
2017-10-08T01:09:42.838Z,12.00
2017-10-08T01:12:10.264Z,12.00
2017-10-08T01:14:37.688Z,12.00
2017-10-08T01:17:05.120Z,11.90
2017-10-08T01:19:33.312Z,11.90
2017-10-08T01:22:00.739Z,11.90
2017-10-08T01:24:28.165Z,11.90
2017-10-08T01:26:55.635Z,11.90
2017-10-08T01:29:23.068Z,11.90
2017-10-08T01:31:50.496Z,11.90
2017-10-08T01:34:17.928Z,11.90
2017-10-08T01:36:46.121Z,12.00
2017-10-08T01:39:14.314Z,12.00
2017-10-08T01:41:41.736Z,12.00
2017-10-08T01:44:09.953Z,12.00
2017-10-08T01:46:37.364Z,12.00
2017-10-08T01:49:05.559Z,12.00
2017-10-08T01:51:32.983Z,12.00
2017-10-08T01:54:00.771Z,12.00
2017-10-08T01:56:28.968Z,12.00
2017-10-08T01:58:56.402Z,12.00
2017-10-08T02:01:24.596Z,12.00
2017-10-08T02:03:53.068Z,12.00
2017-10-08T02:06:20.492Z,12.10
2017-10-08T02:08:47.947Z,12.10
2017-10-08T02:11:15.384Z,12.00
2017-10-08T02:13:42.814Z,12.10
2017-10-08T02:16:10.248Z,12.10
2017-10-08T02:18:38.427Z,12.20
2017-10-08T02:21:05.855Z,12.20
2017-10-08T02:23:33.280Z,12.10
2017-10-08T02:26:00.708Z,12.20
2017-10-08T02:28:28.133Z,12.20
2017-10-08T02:30:56.324Z,12.20
2017-10-08T02:33:23.755Z,12.20
2017-10-08T02:35:51.178Z,12.20
2017-10-08T02:38:19.376Z,12.30
2017-10-08T02:40:46.844Z,12.30
2017-10-08T02:43:14.267Z,12.30
2017-10-08T02:45:41.707Z,12.30
2017-10-08T02:48:09.123Z,12.20
2017-10-08T02:50:37.328Z,12.20
2017-10-08T02:53:04.743Z,12.20
2017-10-08T02:55:32.167Z,12.10
2017-10-08T02:57:59.600Z,12.10
2017-10-08T03:00:27.038Z,12.20
2017-10-08T03:02:55.223Z,12.20
2017-10-08T03:05:22.644Z,12.20
2017-10-08T03:07:50.071Z,12.10
2017-10-08T03:10:17.505Z,12.10
2017-10-08T03:12:44.936Z,12.20
2017-10-08T03:15:14.210Z,12.20
2017-10-08T03:17:41.630Z,12.20
2017-10-08T03:20:09.058Z,12.20
2017-10-08T03:22:36.492Z,12.20
2017-10-08T03:25:04.682Z,12.20
2017-10-08T03:27:32.111Z,12.20
2017-10-08T03:29:59.523Z,12.20
2017-10-08T03:32:28.976Z,12.20
2017-10-08T03:34:56.404Z,12.20
2017-10-08T03:37:23.885Z,12.20
2017-10-08T03:39:51.356Z,12.30
2017-10-08T03:42:19.548Z,12.30
2017-10-08T03:44:46.972Z,12.30
2017-10-08T03:47:14.407Z,12.40
2017-10-08T03:49:41.840Z,12.30
2017-10-08T03:52:09.259Z,12.40
2017-10-08T03:54:37.454Z,12.30
2017-10-08T03:57:04.875Z,12.30
2017-10-08T03:59:32.308Z,12.40
2017-10-08T04:01:59.724Z,12.30
2017-10-08T04:04:27.153Z,12.20
2017-10-08T04:06:55.335Z,12.10
2017-10-08T04:09:23.530Z,12.10
2017-10-08T04:11:50.957Z,12.10
2017-10-08T04:14:19.151Z,12.00
2017-10-08T04:16:46.575Z,12.00
2017-10-08T04:19:14.002Z,12.00
2017-10-08T04:21:41.421Z,12.00
2017-10-08T04:24:08.848Z,11.90
2017-10-08T04:26:36.280Z,12.00
2017-10-08T04:29:03.729Z,12.00
2017-10-08T04:31:31.260Z,12.10
2017-10-08T04:33:59.432Z,12.20
2017-10-08T04:36:26.860Z,12.10
2017-10-08T04:38:55.057Z,12.20
2017-10-08T04:41:22.516Z,12.20
2017-10-08T04:43:49.942Z,12.20
2017-10-08T04:46:18.143Z,12.20
2017-10-08T04:48:45.560Z,12.20
2017-10-08T04:51:13.015Z,12.20
2017-10-08T04:53:40.488Z,12.30
2017-10-08T04:56:07.919Z,12.30
2017-10-08T04:58:35.335Z,12.20
2017-10-08T05:01:02.772Z,12.30
2017-10-08T05:03:30.955Z,12.20
2017-10-08T05:05:58.380Z,12.20
2017-10-08T05:08:25.856Z,12.30
2017-10-08T05:10:54.106Z,12.40
2017-10-08T05:13:21.525Z,12.40
2017-10-08T05:15:49.041Z,12.40
2017-10-08T05:18:17.232Z,12.40
2017-10-08T05:20:44.722Z,12.40
2017-10-08T05:23:12.159Z,12.40
2017-10-08T05:25:39.604Z,12.40
2017-10-08T05:28:07.787Z,12.50
2017-10-08T05:30:35.667Z,12.50
2017-10-08T05:33:03.133Z,12.50
2017-10-08T05:35:30.562Z,12.50
2017-10-08T05:37:57.988Z,12.50
2017-10-08T05:40:25.438Z,12.50
2017-10-08T05:42:52.936Z,12.50
2017-10-08T05:45:20.509Z,12.60
2017-10-08T05:47:48.056Z,12.60
2017-10-08T05:50:16.270Z,12.70
2017-10-08T05:52:43.695Z,12.70
2017-10-08T05:55:11.133Z,12.70
2017-10-08T05:57:39.334Z,12.70
2017-10-08T06:00:06.789Z,12.70
2017-10-08T06:02:34.226Z,12.70
2017-10-08T06:05:01.655Z,12.70
2017-10-08T06:07:29.076Z,12.70
2017-10-08T06:09:57.675Z,12.70
2017-10-08T06:12:25.113Z,12.70
2017-10-08T06:14:52.540Z,12.70
2017-10-08T06:17:20.110Z,12.70
2017-10-08T06:19:47.544Z,12.70
2017-10-08T06:22:15.887Z,12.80
2017-10-08T06:24:43.319Z,12.80
2017-10-08T06:27:10.740Z,12.70
2017-10-08T06:29:38.932Z,12.70
2017-10-08T06:32:06.361Z,12.70
2017-10-08T06:34:34.555Z,12.70
2017-10-08T06:37:01.980Z,12.70
2017-10-08T06:39:29.421Z,12.80
2017-10-08T06:41:56.949Z,12.90
2017-10-08T06:44:24.364Z,12.90
2017-10-08T06:46:54.281Z,12.90
2017-10-08T06:49:21.699Z,12.90
2017-10-08T06:51:49.237Z,13.00
2017-10-08T06:54:16.668Z,13.10
2017-10-08T06:56:44.097Z,13.20
2017-10-08T06:59:11.527Z,13.20
2017-10-08T07:01:38.960Z,13.30
2017-10-08T07:04:06.387Z,13.30
2017-10-08T07:06:33.816Z,13.40
2017-10-08T07:09:01.251Z,13.40
2017-10-08T07:11:28.700Z,13.50
2017-10-08T07:13:56.195Z,13.60
2017-10-08T07:16:24.404Z,13.80
2017-10-08T07:18:51.855Z,13.80
2017-10-08T07:21:19.291Z,13.90
2017-10-08T07:23:47.488Z,14.10
2017-10-08T07:26:14.921Z,14.10
2017-10-08T07:28:43.118Z,14.10
2017-10-08T07:31:10.545Z,14.10
2017-10-08T07:33:37.963Z,14.10
2017-10-08T07:36:05.405Z,14.10
2017-10-08T07:38:32.839Z,14.20
2017-10-08T07:41:00.251Z,14.30
2017-10-08T07:43:27.689Z,14.40
2017-10-08T07:45:55.122Z,14.40
2017-10-08T07:48:22.552Z,14.50
2017-10-08T07:50:50.756Z,14.50
2017-10-08T07:53:18.172Z,14.50
2017-10-08T07:55:46.364Z,14.50
2017-10-08T07:58:14.567Z,14.60
2017-10-08T08:00:41.992Z,14.60
2017-10-08T08:03:10.224Z,14.60
2017-10-08T08:05:37.656Z,14.60
2017-10-08T08:08:05.074Z,14.70
2017-10-08T08:10:33.279Z,14.60
2017-10-08T08:13:00.713Z,14.60
2017-10-08T08:15:28.918Z,14.70
2017-10-08T08:17:56.336Z,14.70
2017-10-08T08:20:24.541Z,14.90
2017-10-08T08:22:51.955Z,14.80
2017-10-08T08:25:19.384Z,14.90
2017-10-08T08:27:48.808Z,15.00
2017-10-08T08:30:16.249Z,15.00
2017-10-08T08:32:43.678Z,15.70
2017-10-08T08:35:11.128Z,16.50
2017-10-08T08:37:38.544Z,17.60
2017-10-08T08:40:05.969Z,18.00
2017-10-08T08:42:33.410Z,18.10
2017-10-08T08:45:00.822Z,17.90
2017-10-08T08:47:29.016Z,17.40
2017-10-08T08:49:56.442Z,17.40
2017-10-08T08:52:23.877Z,17.30
2017-10-08T08:54:51.302Z,17.20
2017-10-08T08:57:18.740Z,16.90
2017-10-08T08:59:46.168Z,16.90
2017-10-08T09:02:13.600Z,16.80
2017-10-08T09:04:41.041Z,16.80
2017-10-08T09:07:08.464Z,16.70
2017-10-08T09:09:36.735Z,16.80
2017-10-08T09:12:04.927Z,16.80
2017-10-08T09:14:32.360Z,16.80
2017-10-08T09:17:00.552Z,17.50
2017-10-08T09:19:27.984Z,17.60
2017-10-08T09:21:56.175Z,19.20
2017-10-08T09:24:23.608Z,19.10
2017-10-08T09:26:51.036Z,19.10
2017-10-08T09:29:18.467Z,19.30
2017-10-08T09:31:45.897Z,19.20
2017-10-08T09:34:14.084Z,19.80
2017-10-08T09:36:41.612Z,19.80
2017-10-08T09:39:09.838Z,19.50
2017-10-08T09:41:37.268Z,19.50
2017-10-08T09:44:04.695Z,19.00
2017-10-08T09:46:32.163Z,18.70
2017-10-08T09:49:00.356Z,18.60
2017-10-08T09:51:27.793Z,18.60
2017-10-08T09:53:55.216Z,18.90
2017-10-08T09:56:22.648Z,19.30
2017-10-08T09:58:50.081Z,19.60
2017-10-08T10:01:17.504Z,19.50
2017-10-08T10:03:44.940Z,19.30
2017-10-08T10:06:12.384Z,19.20
2017-10-08T10:08:39.820Z,19.20
2017-10-08T10:11:07.260Z,19.20
2017-10-08T10:13:34.699Z,19.20
2017-10-08T10:16:02.884Z,19.30
2017-10-08T10:18:31.204Z,19.20
2017-10-08T10:20:58.627Z,19.10
2017-10-08T10:23:26.064Z,19.30
2017-10-08T10:25:54.253Z,19.30
2017-10-08T10:28:22.451Z,19.20
2017-10-08T10:30:49.863Z,19.10
2017-10-08T10:33:17.292Z,18.80
2017-10-08T10:35:44.714Z,18.60
2017-10-08T10:38:12.145Z,18.40
2017-10-08T10:40:40.331Z,18.20
2017-10-08T10:43:07.779Z,18.10
2017-10-08T10:45:35.971Z,18.00
2017-10-08T10:48:03.401Z,17.90
2017-10-08T10:50:31.609Z,17.90
2017-10-08T10:52:59.027Z,17.80
2017-10-08T10:55:26.453Z,17.80
2017-10-08T10:57:53.888Z,17.60
2017-10-08T11:00:21.333Z,17.60
2017-10-08T11:02:48.761Z,17.40
2017-10-08T11:05:16.951Z,16.90
2017-10-08T11:07:44.376Z,16.80
2017-10-08T11:10:11.808Z,16.70
2017-10-08T11:12:39.245Z,16.80
2017-10-08T11:15:06.684Z,16.80
2017-10-08T11:17:34.106Z,16.90
2017-10-08T11:20:01.577Z,17.00
2017-10-08T11:22:29.773Z,17.00
2017-10-08T11:24:57.200Z,17.00
2017-10-08T11:27:25.394Z,17.10
2017-10-08T11:29:53.595Z,17.10
2017-10-08T11:32:21.011Z,17.00
2017-10-08T11:34:49.212Z,17.00
2017-10-08T11:37:16.631Z,17.00
2017-10-08T11:39:44.063Z,17.00
2017-10-08T11:42:11.493Z,16.90
2017-10-08T11:44:38.949Z,16.90
2017-10-08T11:47:06.374Z,16.70
2017-10-08T11:49:34.555Z,16.30
2017-10-08T11:52:02.847Z,16.30
2017-10-08T11:54:30.272Z,16.30
2017-10-08T11:56:58.493Z,16.20
2017-10-08T11:59:25.891Z,16.20
2017-10-08T12:01:53.324Z,16.00
2017-10-08T12:04:20.754Z,16.10
2017-10-08T12:06:48.202Z,16.10
2017-10-08T12:09:16.368Z,16.20
2017-10-08T12:11:43.803Z,16.20
2017-10-08T12:14:12.021Z,16.40
2017-10-08T12:16:39.430Z,16.40
2017-10-08T12:19:07.637Z,16.70
2017-10-08T12:21:35.072Z,16.60
2017-10-08T12:24:03.273Z,16.70
2017-10-08T12:26:30.713Z,16.70
2017-10-08T12:28:58.138Z,16.70
2017-10-08T12:31:25.572Z,16.60
2017-10-08T12:33:52.996Z,16.60
2017-10-08T12:36:20.423Z,16.70
2017-10-08T12:38:48.621Z,16.90
2017-10-08T12:41:16.819Z,16.90
2017-10-08T12:43:44.244Z,16.90
2017-10-08T12:46:12.443Z,17.00
2017-10-08T12:48:39.885Z,16.90
2017-10-08T12:51:07.325Z,16.90
2017-10-08T12:53:35.521Z,16.90
2017-10-08T12:56:02.947Z,16.90
2017-10-08T12:58:31.249Z,16.90
2017-10-08T13:00:58.671Z,16.90
2017-10-08T13:03:26.112Z,16.90
2017-10-08T13:05:53.547Z,16.90
2017-10-08T13:08:20.973Z,16.90
2017-10-08T13:10:48.410Z,17.00
2017-10-08T13:13:16.609Z,17.10
2017-10-08T13:15:44.027Z,17.10
2017-10-08T13:18:11.540Z,17.10
2017-10-08T13:20:38.964Z,17.20
2017-10-08T13:23:07.170Z,17.10
2017-10-08T13:25:34.596Z,17.00
2017-10-08T13:28:02.788Z,17.00
2017-10-08T13:30:30.213Z,17.00
2017-10-08T13:32:58.407Z,17.00
2017-10-08T13:35:25.839Z,17.00
2017-10-08T13:37:53.271Z,17.00
2017-10-08T13:40:21.430Z,16.90
2017-10-08T13:42:48.864Z,16.90
2017-10-08T13:45:16.289Z,17.00
2017-10-08T13:47:44.482Z,17.00
2017-10-08T13:50:11.913Z,17.00
2017-10-08T13:52:39.353Z,17.10
2017-10-08T13:55:06.765Z,17.00
2017-10-08T13:57:34.204Z,16.90
2017-10-08T14:00:02.407Z,16.80
2017-10-08T14:02:29.832Z,16.80
2017-10-08T14:04:58.038Z,16.90
2017-10-08T14:07:25.463Z,16.90
2017-10-08T14:09:53.668Z,16.90
2017-10-08T14:12:21.094Z,16.90
2017-10-08T14:14:49.283Z,16.90
2017-10-08T14:17:16.730Z,16.90
2017-10-08T14:19:44.933Z,16.80
2017-10-08T14:22:12.359Z,16.80
2017-10-08T14:24:40.561Z,16.80
2017-10-08T14:27:07.983Z,16.80
2017-10-08T14:29:36.189Z,16.80
2017-10-08T14:32:03.615Z,16.80
2017-10-08T14:34:31.824Z,16.90
2017-10-08T14:36:59.252Z,16.80
2017-10-08T14:39:27.454Z,16.90
2017-10-08T14:41:54.873Z,16.90
2017-10-08T14:44:23.076Z,16.90
2017-10-08T14:46:50.497Z,16.90
2017-10-08T14:49:18.699Z,16.90
2017-10-08T14:51:46.128Z,16.80
2017-10-08T14:54:14.344Z,16.90
2017-10-08T14:56:41.772Z,16.90
2017-10-08T14:59:09.969Z,16.80
2017-10-08T15:01:37.402Z,16.80
2017-10-08T15:04:05.590Z,16.80
2017-10-08T15:06:33.020Z,16.80
2017-10-08T15:09:01.213Z,16.70
2017-10-08T15:11:29.416Z,16.80
2017-10-08T15:13:56.841Z,16.80
2017-10-08T15:16:25.053Z,16.90
2017-10-08T15:18:52.473Z,16.90
2017-10-08T15:21:20.668Z,16.90
2017-10-08T15:23:48.109Z,16.90
2017-10-08T15:26:16.312Z,16.90
2017-10-08T15:28:43.744Z,16.90
2017-10-08T15:31:11.175Z,16.90
2017-10-08T15:33:39.371Z,16.80
2017-10-08T15:36:06.797Z,16.80
2017-10-08T15:38:34.222Z,16.70
2017-10-08T15:41:01.655Z,16.60
2017-10-08T15:43:29.081Z,16.60
2017-10-08T15:45:57.279Z,16.30
2017-10-08T15:48:24.708Z,16.30
2017-10-08T15:50:52.901Z,16.30
2017-10-08T15:53:20.329Z,16.30
2017-10-08T15:55:47.761Z,16.30
2017-10-08T15:58:15.192Z,16.30
2017-10-08T16:00:42.620Z,16.30
2017-10-08T16:03:10.832Z,16.20
2017-10-08T16:05:38.245Z,16.10
2017-10-08T16:08:06.439Z,15.90
2017-10-08T16:10:33.873Z,15.90
2017-10-08T16:13:02.090Z,15.70
2017-10-08T16:15:29.513Z,15.60
2017-10-08T16:17:57.723Z,15.50
2017-10-08T16:20:25.148Z,15.40
2017-10-08T16:22:53.349Z,15.30
2017-10-08T16:25:20.775Z,15.30
2017-10-08T16:27:48.983Z,15.10
2017-10-08T16:30:16.413Z,15.10
2017-10-08T16:32:44.614Z,15.10
2017-10-08T16:35:12.049Z,15.00
2017-10-08T16:37:40.248Z,15.00
2017-10-08T16:40:07.667Z,14.90
2017-10-08T16:42:35.896Z,14.90
2017-10-08T16:45:03.347Z,14.90
2017-10-08T16:47:30.769Z,14.90
2017-10-08T16:49:58.197Z,14.90
2017-10-08T16:52:25.660Z,14.70
2017-10-08T16:54:53.851Z,14.60
2017-10-08T16:57:21.279Z,14.50
2017-10-08T16:59:48.721Z,14.50
2017-10-08T17:02:16.149Z,14.40
2017-10-08T17:04:43.579Z,14.30
2017-10-08T17:07:11.010Z,14.20
2017-10-08T17:09:38.449Z,14.20
2017-10-08T17:12:05.868Z,14.20
2017-10-08T17:14:33.304Z,14.20
2017-10-08T17:17:00.732Z,14.20
2017-10-08T17:19:28.156Z,14.20
2017-10-08T17:21:55.581Z,14.20
2017-10-08T17:24:23.017Z,14.20
2017-10-08T17:26:51.208Z,14.20
2017-10-08T17:29:18.671Z,14.20
2017-10-08T17:31:46.847Z,14.20
2017-10-08T17:34:14.270Z,14.20
2017-10-08T17:36:42.479Z,14.20
2017-10-08T17:39:09.915Z,14.10
2017-10-08T17:41:38.113Z,14.20
2017-10-08T17:44:05.539Z,14.20
2017-10-08T17:46:33.731Z,14.20
2017-10-08T17:49:01.174Z,14.20
2017-10-08T17:51:28.586Z,14.20
2017-10-08T17:53:56.032Z,14.10
2017-10-08T17:56:23.453Z,14.10
2017-10-08T17:58:51.655Z,14.10
2017-10-08T18:01:19.079Z,14.00
2017-10-08T18:03:47.264Z,14.10
2017-10-08T18:06:14.691Z,14.10
2017-10-08T18:08:42.128Z,14.10
2017-10-08T18:11:09.561Z,14.10
2017-10-08T18:13:36.994Z,14.10
2017-10-08T18:16:04.424Z,14.00
2017-10-08T18:18:32.624Z,14.00
2017-10-08T18:21:00.051Z,14.00
2017-10-08T18:23:27.480Z,14.00
2017-10-08T18:25:54.948Z,14.00
2017-10-08T18:28:22.372Z,13.80
2017-10-08T18:30:49.868Z,13.80
2017-10-08T18:33:17.284Z,13.70
2017-10-08T18:35:44.708Z,13.70
2017-10-08T18:38:12.915Z,13.70
2017-10-08T18:40:40.347Z,13.70
2017-10-08T18:43:07.777Z,13.70
2017-10-08T18:45:35.212Z,13.70
2017-10-08T18:48:02.642Z,13.70
2017-10-08T18:50:30.071Z,13.70
2017-10-08T18:52:58.271Z,13.70
2017-10-08T18:55:25.706Z,13.70
2017-10-08T18:57:53.903Z,13.70
2017-10-08T19:00:21.332Z,13.70
2017-10-08T19:02:49.588Z,13.70
2017-10-08T19:05:17.775Z,13.70
2017-10-08T19:07:45.989Z,13.70
2017-10-08T19:10:13.407Z,13.70
2017-10-08T19:12:41.624Z,13.70
2017-10-08T19:15:09.046Z,13.70
2017-10-08T19:17:37.237Z,13.60
2017-10-08T19:20:04.668Z,13.60
2017-10-08T19:22:32.864Z,13.60
2017-10-08T19:25:00.289Z,13.60
2017-10-08T19:27:28.483Z,13.60
2017-10-08T19:29:55.906Z,13.50
2017-10-08T19:32:23.337Z,13.60
2017-10-08T19:34:50.764Z,13.50
2017-10-08T19:37:18.196Z,13.50
2017-10-08T19:39:46.392Z,13.50
2017-10-08T19:42:13.824Z,13.50
2017-10-08T19:44:42.020Z,13.50
2017-10-08T19:47:09.461Z,13.40
2017-10-08T19:49:37.670Z,13.50
2017-10-08T19:52:05.098Z,13.50
2017-10-08T19:54:33.295Z,13.50
2017-10-08T19:57:00.727Z,13.50
2017-10-08T19:59:28.913Z,13.50
2017-10-08T20:01:56.334Z,13.50
2017-10-08T20:04:23.773Z,13.60
2017-10-08T20:06:51.203Z,13.50
2017-10-08T20:09:18.641Z,13.50
2017-10-08T20:11:46.074Z,13.40
2017-10-08T20:14:13.491Z,13.40
2017-10-08T20:16:40.911Z,13.40
2017-10-08T20:19:08.348Z,13.40
2017-10-08T20:21:39.685Z,13.40
2017-10-08T20:24:08.703Z,13.40
2017-10-08T20:26:36.127Z,13.40
2017-10-08T20:29:03.565Z,13.40
2017-10-08T20:31:30.997Z,13.50
2017-10-08T20:33:58.424Z,13.40
2017-10-08T20:36:26.616Z,13.30
2017-10-08T20:38:54.068Z,13.30
2017-10-08T20:41:22.230Z,13.40
2017-10-08T20:43:49.663Z,13.40
2017-10-08T20:46:17.083Z,13.40
2017-10-08T20:48:44.515Z,13.40
2017-10-08T20:51:11.940Z,13.50
2017-10-08T20:53:40.134Z,13.40
2017-10-08T20:56:07.561Z,13.40
2017-10-08T20:58:35.008Z,13.30
2017-10-08T21:01:02.434Z,13.30
2017-10-08T21:03:29.864Z,13.30
2017-10-08T21:05:57.297Z,13.30
2017-10-08T21:08:25.483Z,13.30
2017-10-08T21:10:53.688Z,13.20
2017-10-08T21:13:21.108Z,13.20
2017-10-08T21:15:49.303Z,13.10
2017-10-08T21:18:16.728Z,13.10
2017-10-08T21:20:44.155Z,13.10
2017-10-08T21:23:11.589Z,13.00
2017-10-08T21:25:39.015Z,13.00
2017-10-08T21:28:07.199Z,12.80
2017-10-08T21:30:34.635Z,12.80
2017-10-08T21:33:02.838Z,12.80
2017-10-08T21:35:30.263Z,12.70
2017-10-08T21:37:58.459Z,12.80
2017-10-08T21:40:25.898Z,12.70
2017-10-08T21:42:54.088Z,12.80
2017-10-08T21:45:21.519Z,12.80
2017-10-08T21:47:48.940Z,12.70
2017-10-08T21:50:16.381Z,12.80
2017-10-08T21:52:43.810Z,12.80
2017-10-08T21:55:12.009Z,12.80
2017-10-08T21:57:39.454Z,12.80
2017-10-08T22:00:06.912Z,12.90
2017-10-08T22:02:34.339Z,12.90
2017-10-08T22:05:02.595Z,12.90
2017-10-08T22:07:30.027Z,12.90
2017-10-08T22:09:57.451Z,12.90
2017-10-08T22:12:24.896Z,12.90
2017-10-08T22:14:53.079Z,12.80
2017-10-08T22:17:20.512Z,12.80
2017-10-08T22:19:47.952Z,12.70
2017-10-08T22:22:15.372Z,12.70
2017-10-08T22:24:42.797Z,12.70
2017-10-08T22:27:10.992Z,12.70
2017-10-08T22:29:38.414Z,12.70
2017-10-08T22:32:06.608Z,12.70
2017-10-08T22:34:34.041Z,12.70
2017-10-08T22:37:01.468Z,12.70
2017-10-08T22:39:28.891Z,12.60
2017-10-08T22:41:56.328Z,12.60
2017-10-08T22:44:24.535Z,12.50
2017-10-08T22:46:51.963Z,12.40
2017-10-08T22:49:19.397Z,12.50
2017-10-08T22:51:46.829Z,12.40
2017-10-08T22:54:14.254Z,12.40
2017-10-08T22:56:41.672Z,12.50
2017-10-08T22:59:09.867Z,12.50
2017-10-08T23:01:37.304Z,12.50
2017-10-08T23:04:05.983Z,12.30
2017-10-08T23:06:33.400Z,12.20
2017-10-08T23:09:00.827Z,12.30
2017-10-08T23:11:28.250Z,12.20
2017-10-08T23:13:55.686Z,12.20
2017-10-08T23:16:23.103Z,12.20
2017-10-08T23:18:50.527Z,12.30
2017-10-08T23:21:18.718Z,12.30
2017-10-08T23:23:46.923Z,12.30
2017-10-08T23:26:14.351Z,12.30
2017-10-08T23:28:42.555Z,12.40
2017-10-08T23:31:09.981Z,12.40
2017-10-08T23:33:38.186Z,12.30
2017-10-08T23:36:05.627Z,12.30
2017-10-08T23:38:33.060Z,12.40
2017-10-08T23:41:01.247Z,12.50
2017-10-08T23:43:28.677Z,12.50
2017-10-08T23:45:56.112Z,12.50
2017-10-08T23:48:23.544Z,12.50
2017-10-08T23:50:50.981Z,12.60
2017-10-08T23:53:18.416Z,12.50
2017-10-08T23:55:46.599Z,12.50
2017-10-08T23:58:14.805Z,12.40
